createdAt,value
2022-08-14T00:00:38.274Z,501
2022-08-14T00:01:30.303Z,481
2022-08-14T00:02:22.162Z,480
2022-08-14T00:03:13.848Z,476
2022-08-14T00:04:35.033Z,455
2022-08-14T00:04:57.746Z,457
2022-08-14T00:05:58.114Z,476
2022-08-14T00:06:41.544Z,477
2022-08-14T00:07:33.456Z,507
2022-08-14T00:08:43.756Z,510
2022-08-14T00:09:17.649Z,480
2022-08-14T00:10:51.532Z,478
2022-08-14T00:11:01.048Z,460
2022-08-14T00:11:52.940Z,480
2022-08-14T00:12:48.001Z,473
2022-08-14T00:13:36.754Z,482
2022-08-14T00:14:28.672Z,480
2022-08-14T00:15:21.792Z,483
2022-08-14T00:16:12.466Z,500
2022-08-14T00:17:04.273Z,498
2022-08-14T00:17:56.294Z,498
2022-08-14T00:19:06.604Z,501
2022-08-14T00:19:40.093Z,494
2022-08-14T00:20:35.900Z,500
2022-08-14T00:21:28.344Z,489
2022-08-14T00:22:15.773Z,502
2022-08-14T00:23:14.521Z,500
2022-08-14T00:24:01.693Z,484
2022-08-14T00:24:51.477Z,501
2022-08-14T00:25:43.369Z,484
2022-08-14T00:26:35.276Z,478
2022-08-14T00:27:27.164Z,493
2022-08-14T00:28:19.103Z,478
2022-08-14T00:29:10.997Z,487
2022-08-14T00:30:02.831Z,484
2022-08-14T00:30:54.782Z,490
2022-08-14T00:31:46.674Z,496
2022-08-14T00:32:53.185Z,518
2022-08-14T00:33:50.430Z,498
2022-08-14T00:34:37.726Z,491
2022-08-14T00:35:14.204Z,506
2022-08-14T00:36:37.589Z,479
2022-08-14T00:36:58.507Z,462
2022-08-14T00:37:49.959Z,465
2022-08-14T00:38:41.863Z,480
2022-08-14T00:39:33.790Z,485
2022-08-14T00:40:33.027Z,495
2022-08-14T00:41:17.541Z,469
2022-08-14T00:42:21.327Z,486
2022-08-14T00:43:01.364Z,492
2022-08-14T00:43:53.254Z,486
2022-08-14T00:44:45.163Z,497
2022-08-14T00:45:37.014Z,502
2022-08-14T00:46:33.195Z,492
2022-08-14T00:47:20.864Z,503
2022-08-14T00:48:12.759Z,498
2022-08-14T00:49:04.664Z,480
2022-08-14T00:49:56.572Z,492
2022-08-14T00:50:48.480Z,490
2022-08-14T00:51:41.109Z,476
2022-08-14T00:52:32.294Z,495
2022-08-14T00:53:24.097Z,486
2022-08-14T00:54:21.254Z,466
2022-08-14T00:55:08.178Z,490
2022-08-14T00:55:59.884Z,497
2022-08-14T00:56:53.012Z,493
2022-08-14T00:57:43.683Z,495
2022-08-14T00:58:35.558Z,489
2022-08-14T00:59:27.481Z,513
2022-08-14T01:00:37.397Z,504
2022-08-14T01:01:11.274Z,517
2022-08-14T01:02:03.124Z,529
2022-08-14T01:02:55.041Z,531
2022-08-14T01:03:52.891Z,541
2022-08-14T01:04:53.961Z,534
2022-08-14T01:05:51.010Z,540
2022-08-14T01:06:22.631Z,533
2022-08-14T01:07:14.466Z,549
2022-08-14T01:08:06.431Z,547
2022-08-14T01:08:59.429Z,543
2022-08-14T01:09:50.233Z,524
2022-08-14T01:10:42.073Z,530
2022-08-14T01:11:36.160Z,538
2022-08-14T01:12:26.979Z,552
2022-08-14T01:13:17.831Z,556
2022-08-14T01:14:25.460Z,555
2022-08-14T01:15:02.103Z,553
2022-08-14T01:15:58.524Z,540
2022-08-14T01:16:45.425Z,561
2022-08-14T01:17:37.261Z,545
2022-08-14T01:18:29.225Z,557
2022-08-14T01:19:21.105Z,531
2022-08-14T01:20:27.221Z,539
2022-08-14T01:21:04.893Z,533
2022-08-14T01:21:56.798Z,531
2022-08-14T01:22:48.685Z,526
2022-08-14T01:23:46.582Z,517
2022-08-14T01:24:34.368Z,523
2022-08-14T01:25:24.360Z,532
2022-08-14T01:26:34.627Z,516
2022-08-14T01:27:08.186Z,506
2022-08-14T01:28:00.098Z,519
2022-08-14T01:28:56.821Z,502
2022-08-14T01:29:59.034Z,498
2022-08-14T01:30:39.921Z,499
2022-08-14T01:31:27.668Z,525
2022-08-14T01:32:22.798Z,519
2022-08-14T01:33:11.503Z,522
2022-08-14T01:35:18.129Z,502
2022-08-14T01:35:18.572Z,506
2022-08-14T01:36:04.013Z,484
2022-08-14T01:36:39.667Z,501
2022-08-14T01:37:31.397Z,500
2022-08-14T01:38:22.832Z,481
2022-08-14T01:39:14.762Z,485
2022-08-14T01:40:06.597Z,505
2022-08-14T01:40:58.493Z,508
2022-08-14T01:41:50.370Z,530
2022-08-14T01:42:42.478Z,535
2022-08-14T01:43:35.870Z,514
2022-08-14T01:44:31.963Z,533
2022-08-14T01:45:25.627Z,536
2022-08-14T01:46:10.442Z,534
2022-08-14T01:47:01.764Z,533
2022-08-14T01:48:02.980Z,518
2022-08-14T01:48:45.519Z,522
2022-08-14T01:49:40.544Z,531
2022-08-14T01:50:29.260Z,510
2022-08-14T01:51:21.168Z,470
2022-08-14T01:52:13.423Z,483
2022-08-14T01:53:05.174Z,509
2022-08-14T01:53:56.813Z,507
2022-08-14T01:54:58.451Z,547
2022-08-14T01:55:40.737Z,535
2022-08-14T01:56:32.480Z,540
2022-08-14T01:57:24.304Z,505
2022-08-14T01:58:19.596Z,512
2022-08-14T01:59:09.705Z,516
2022-08-14T02:00:00.027Z,510
2022-08-14T02:00:51.884Z,481
2022-08-14T02:01:57.926Z,491
2022-08-14T02:02:36.873Z,506
2022-08-14T02:03:29.675Z,487
2022-08-14T02:04:41.014Z,471
2022-08-14T02:05:11.304Z,464
2022-08-14T02:06:31.813Z,462
2022-08-14T02:06:55.067Z,467
2022-08-14T02:07:55.619Z,495
2022-08-14T02:08:52.604Z,512
2022-08-14T02:09:31.967Z,529
2022-08-14T02:10:26.297Z,562
2022-08-14T02:11:14.418Z,564
2022-08-14T02:12:06.326Z,540
2022-08-14T02:12:59.429Z,538
2022-08-14T02:13:50.445Z,553
2022-08-14T02:14:59.152Z,546
2022-08-14T02:15:33.827Z,548
2022-08-14T02:16:26.423Z,527
2022-08-14T02:17:17.579Z,503
2022-08-14T02:18:09.444Z,513
2022-08-14T02:19:01.341Z,520
2022-08-14T02:19:53.227Z,509
2022-08-14T02:20:45.096Z,501
2022-08-14T02:21:43.579Z,504
2022-08-14T02:22:33.165Z,496
2022-08-14T02:23:28.997Z,485
2022-08-14T02:24:39.131Z,504
2022-08-14T02:25:04.510Z,505
2022-08-14T02:25:56.387Z,518
2022-08-14T02:26:58.305Z,512
2022-08-14T02:28:25.728Z,518
2022-08-14T02:28:57.295Z,541
2022-08-14T02:29:23.929Z,531
2022-08-14T02:30:15.780Z,534
2022-08-14T02:31:08.944Z,571
2022-08-14T02:31:59.565Z,565
2022-08-14T02:32:51.663Z,578
2022-08-14T02:33:43.326Z,586
2022-08-14T02:34:36.291Z,582
2022-08-14T02:35:27.082Z,587
2022-08-14T02:36:45.995Z,582
2022-08-14T02:37:10.914Z,570
2022-08-14T02:38:04.209Z,566
2022-08-14T02:38:54.703Z,570
2022-08-14T02:39:46.581Z,566
2022-08-14T02:40:38.431Z,593
2022-08-14T02:41:31.828Z,589
2022-08-14T02:42:23.551Z,580
2022-08-14T02:43:14.089Z,580
2022-08-14T02:44:05.960Z,575
2022-08-14T02:44:57.873Z,567
2022-08-14T02:45:49.750Z,552
2022-08-14T02:46:41.660Z,547
2022-08-14T02:47:33.538Z,536
2022-08-14T02:49:03.121Z,519
2022-08-14T02:49:17.327Z,493
2022-08-14T02:50:09.208Z,498
2022-08-14T02:51:01.408Z,521
2022-08-14T02:51:52.986Z,507
2022-08-14T02:52:56.542Z,511
2022-08-14T02:53:37.436Z,506
2022-08-14T02:54:28.654Z,512
2022-08-14T02:55:20.733Z,497
2022-08-14T02:56:30.319Z,498
2022-08-14T02:57:37.573Z,496
2022-08-14T02:57:57.973Z,483
2022-08-14T02:58:48.206Z,495
2022-08-14T02:59:39.961Z,496
2022-08-14T03:00:31.850Z,499
2022-08-14T03:01:24.140Z,497
2022-08-14T03:02:33.501Z,496
2022-08-14T03:03:08.004Z,482
2022-08-14T03:03:59.374Z,475
2022-08-14T03:04:51.257Z,471
2022-08-14T03:05:43.132Z,478
2022-08-14T03:06:57.005Z,489
2022-08-14T03:07:26.912Z,489
2022-08-14T03:08:18.996Z,493
2022-08-14T03:09:10.663Z,512
2022-08-14T03:10:28.260Z,525
2022-08-14T03:10:54.333Z,502
2022-08-14T03:11:46.294Z,473
2022-08-14T03:12:38.169Z,484
2022-08-14T03:13:30.043Z,478
2022-08-14T03:14:21.930Z,501
2022-08-14T03:15:16.533Z,482
2022-08-14T03:16:07.965Z,494
2022-08-14T03:16:57.525Z,501
2022-08-14T03:17:56.583Z,507
2022-08-14T03:18:41.265Z,532
2022-08-14T03:19:33.157Z,535
2022-08-14T03:20:24.927Z,525
2022-08-14T03:21:16.903Z,537
2022-08-14T03:22:09.317Z,535
2022-08-14T03:23:03.266Z,522
2022-08-14T03:23:52.516Z,510
2022-08-14T03:24:44.319Z,502
2022-08-14T03:25:37.602Z,501
2022-08-14T03:26:30.282Z,473
2022-08-14T03:27:19.995Z,474
2022-08-14T03:28:14.591Z,465
2022-08-14T03:29:03.720Z,460
2022-08-14T03:29:55.616Z,484
2022-08-14T03:30:47.480Z,483
2022-08-14T03:31:39.389Z,489
2022-08-14T03:32:32.115Z,471
2022-08-14T03:33:23.077Z,464
2022-08-14T03:34:24.291Z,474
2022-08-14T03:35:08.818Z,476
2022-08-14T03:36:00.168Z,461
2022-08-14T03:37:37.850Z,464
2022-08-14T03:39:10.314Z,479
2022-08-14T03:39:15.721Z,536
2022-08-14T03:39:27.418Z,643
2022-08-14T03:40:18.260Z,645
2022-08-14T03:41:09.877Z,633
2022-08-14T03:42:02.040Z,665
2022-08-14T03:42:53.619Z,634
2022-08-14T03:43:45.512Z,595
2022-08-14T03:45:18.844Z,570
2022-08-14T03:45:34.930Z,572
2022-08-14T03:46:38.927Z,538
2022-08-14T03:47:15.482Z,519
2022-08-14T03:48:04.745Z,502
2022-08-14T03:48:56.720Z,481
2022-08-14T03:49:50.017Z,485
2022-08-14T03:50:40.456Z,493
2022-08-14T03:51:32.323Z,471
2022-08-14T03:52:38.259Z,470
2022-08-14T03:53:15.950Z,468
2022-08-14T03:54:07.930Z,469
2022-08-14T03:54:59.789Z,468
2022-08-14T03:55:52.422Z,452
2022-08-14T03:56:43.511Z,477
2022-08-14T03:57:37.312Z,452
2022-08-14T03:58:36.202Z,444
2022-08-14T03:59:19.155Z,436
2022-08-14T04:00:13.779Z,451
2022-08-14T04:01:02.937Z,440
2022-08-14T04:02:01.304Z,460
2022-08-14T04:02:47.557Z,441
2022-08-14T04:03:38.433Z,489
2022-08-14T04:04:30.466Z,497
2022-08-14T04:05:22.175Z,481
2022-08-14T04:06:14.117Z,452
2022-08-14T04:07:05.926Z,458
2022-08-14T04:08:08.452Z,458
2022-08-14T04:08:49.628Z,471
2022-08-14T04:09:41.500Z,469
2022-08-14T04:10:33.376Z,468
2022-08-14T04:11:25.239Z,495
2022-08-14T04:12:17.098Z,497
2022-08-14T04:13:08.972Z,502
2022-08-14T04:14:00.850Z,507
2022-08-14T04:14:52.725Z,503
2022-08-14T04:16:01.045Z,495
2022-08-14T04:16:36.444Z,500
2022-08-14T04:17:28.302Z,507
2022-08-14T04:18:20.197Z,503
2022-08-14T04:19:12.033Z,501
2022-08-14T04:20:03.908Z,499
2022-08-14T04:20:55.868Z,490
2022-08-14T04:22:02.349Z,532
2022-08-14T04:22:39.519Z,585
2022-08-14T04:23:32.818Z,559
2022-08-14T04:24:23.242Z,514
2022-08-14T04:25:15.122Z,497
2022-08-14T04:26:08.267Z,492
2022-08-14T04:26:58.866Z,501
2022-08-14T04:28:02.223Z,499
2022-08-14T04:28:58.794Z,509
2022-08-14T04:29:34.461Z,505
2022-08-14T04:30:32.756Z,479
2022-08-14T04:31:18.187Z,474
2022-08-14T04:33:00.067Z,463
2022-08-14T04:33:05.392Z,470
2022-08-14T04:33:53.884Z,475
2022-08-14T04:34:52.006Z,475
2022-08-14T04:35:55.528Z,477
2022-08-14T04:36:29.398Z,467
2022-08-14T04:37:24.477Z,454
2022-08-14T04:38:37.062Z,478
2022-08-14T04:39:04.920Z,455
2022-08-14T04:39:57.721Z,462
2022-08-14T04:40:48.743Z,485
2022-08-14T04:41:40.584Z,487
2022-08-14T04:42:32.468Z,475
2022-08-14T04:43:24.293Z,473
2022-08-14T04:44:36.245Z,469
2022-08-14T04:45:08.043Z,488
2022-08-14T04:45:59.908Z,496
2022-08-14T04:46:56.957Z,517
2022-08-14T04:47:46.303Z,506
2022-08-14T04:48:43.218Z,483
2022-08-14T04:49:27.379Z,488
2022-08-14T04:50:23.185Z,476
2022-08-14T04:51:11.119Z,488
2022-08-14T04:52:03.130Z,482
2022-08-14T04:52:54.835Z,474
2022-08-14T04:53:46.692Z,482
2022-08-14T04:54:38.577Z,481
2022-08-14T04:55:30.921Z,515
2022-08-14T04:56:30.716Z,528
2022-08-14T04:57:14.204Z,580
2022-08-14T04:58:06.060Z,617
2022-08-14T04:58:57.935Z,672
2022-08-14T04:59:50.888Z,685
2022-08-14T05:00:41.696Z,733
2022-08-14T05:01:39.647Z,842
2022-08-14T05:02:25.565Z,844
2022-08-14T05:03:17.317Z,690
2022-08-14T05:04:16.150Z,697
2022-08-14T05:05:01.088Z,675
2022-08-14T05:05:54.458Z,653
2022-08-14T05:06:44.863Z,664
2022-08-14T05:07:54.171Z,670
2022-08-14T05:08:32.292Z,661
2022-08-14T05:09:20.536Z,663
2022-08-14T05:10:12.780Z,673
2022-08-14T05:11:04.314Z,682
2022-08-14T05:11:56.230Z,672
2022-08-14T05:13:10.743Z,662
2022-08-14T05:14:16.099Z,679
2022-08-14T05:14:45.482Z,677
2022-08-14T05:15:23.762Z,661
2022-08-14T05:16:15.633Z,625
2022-08-14T05:17:07.543Z,612
2022-08-14T05:18:16.822Z,600
2022-08-14T05:19:17.824Z,622
2022-08-14T05:19:44.797Z,601
2022-08-14T05:21:55.108Z,625
2022-08-14T05:21:57.007Z,596
2022-08-14T05:22:19.308Z,593
2022-08-14T05:23:11.132Z,588
2022-08-14T05:24:02.619Z,553
2022-08-14T05:24:54.406Z,574
2022-08-14T05:25:46.402Z,573
2022-08-14T05:26:38.258Z,591
2022-08-14T05:27:30.978Z,584
2022-08-14T05:28:22.027Z,588
2022-08-14T05:29:13.922Z,589
2022-08-14T05:30:05.799Z,568
2022-08-14T05:30:57.741Z,572
2022-08-14T05:31:49.575Z,575
2022-08-14T05:32:41.473Z,591
2022-08-14T05:33:33.345Z,569
2022-08-14T05:34:28.875Z,555
2022-08-14T05:35:17.115Z,559
2022-08-14T05:36:16.440Z,540
2022-08-14T05:37:02.236Z,553
2022-08-14T05:37:52.772Z,566
2022-08-14T05:38:44.557Z,558
2022-08-14T05:39:36.593Z,531
2022-08-14T05:40:28.411Z,538
2022-08-14T05:41:20.292Z,536
2022-08-14T05:42:22.364Z,521
2022-08-14T05:43:06.845Z,510
2022-08-14T05:43:55.933Z,513
2022-08-14T05:44:47.807Z,533
2022-08-14T05:45:39.695Z,527
2022-08-14T05:46:31.561Z,521
2022-08-14T05:47:23.427Z,497
2022-08-14T05:48:32.931Z,487
2022-08-14T05:49:07.178Z,504
2022-08-14T05:49:59.073Z,488
2022-08-14T05:50:50.937Z,492
2022-08-14T05:51:42.837Z,498
2022-08-14T05:52:48.984Z,499
2022-08-14T05:53:26.612Z,504
2022-08-14T05:54:26.766Z,519
2022-08-14T05:55:10.382Z,514
2022-08-14T05:56:02.248Z,500
2022-08-14T05:56:54.134Z,515
2022-08-14T05:57:46.008Z,510
2022-08-14T05:58:41.334Z,524
2022-08-14T05:59:38.670Z,515
2022-08-14T06:00:28.237Z,496
2022-08-14T06:01:13.613Z,488
2022-08-14T06:02:05.822Z,493
2022-08-14T06:02:57.331Z,504
2022-08-14T06:03:49.236Z,507
2022-08-14T06:04:41.106Z,506
2022-08-14T06:05:32.987Z,493
2022-08-14T06:06:24.775Z,488
2022-08-14T06:07:16.768Z,494
2022-08-14T06:08:21.699Z,490
2022-08-14T06:09:00.546Z,495
2022-08-14T06:09:52.663Z,518
2022-08-14T06:10:44.342Z,505
2022-08-14T06:11:36.183Z,519
2022-08-14T06:12:55.334Z,515
2022-08-14T06:13:19.955Z,530
2022-08-14T06:14:20.905Z,520
2022-08-14T06:15:03.720Z,519
2022-08-14T06:15:55.622Z,517
2022-08-14T06:16:47.505Z,512
2022-08-14T06:17:46.992Z,502
2022-08-14T06:18:32.229Z,506
2022-08-14T06:19:23.620Z,508
2022-08-14T06:20:14.975Z,509
2022-08-14T06:21:13.538Z,505
2022-08-14T06:21:59.521Z,503
2022-08-14T06:22:50.730Z,503
2022-08-14T06:23:42.601Z,491
2022-08-14T06:24:35.009Z,494
2022-08-14T06:25:26.673Z,512
2022-08-14T06:26:20.624Z,505
2022-08-14T06:27:10.859Z,481
2022-08-14T06:28:03.994Z,494
2022-08-14T06:28:53.950Z,483
2022-08-14T06:29:45.867Z,486
2022-08-14T06:30:46.230Z,466
2022-08-14T06:31:29.640Z,450
2022-08-14T06:32:52.418Z,461
2022-08-14T06:33:13.424Z,482
2022-08-14T06:35:04.825Z,471
2022-08-14T06:35:10.372Z,476
2022-08-14T06:35:49.088Z,461
2022-08-14T06:36:41.011Z,472
2022-08-14T06:37:32.873Z,473
2022-08-14T06:38:24.682Z,478
2022-08-14T06:39:17.285Z,481
2022-08-14T06:40:08.587Z,475
2022-08-14T06:41:00.443Z,478
2022-08-14T06:41:57.535Z,468
2022-08-14T06:42:44.656Z,457
2022-08-14T06:43:36.152Z,472
2022-08-14T06:44:32.268Z,485
2022-08-14T06:45:19.927Z,455
2022-08-14T06:46:17.453Z,443
2022-08-14T06:47:03.899Z,451
2022-08-14T06:47:55.620Z,457
2022-08-14T06:48:47.530Z,463
2022-08-14T06:49:42.708Z,457
2022-08-14T06:50:31.351Z,477
2022-08-14T06:51:23.192Z,539
2022-08-14T06:52:15.305Z,577
2022-08-14T06:53:06.983Z,597
2022-08-14T06:53:58.904Z,622
2022-08-14T06:54:50.812Z,639
2022-08-14T06:55:57.891Z,665
2022-08-14T06:56:34.552Z,800
2022-08-14T06:57:26.538Z,1074
2022-08-14T06:58:28.813Z,1737
2022-08-14T06:59:10.338Z,1380
2022-08-14T07:00:02.233Z,1287
2022-08-14T07:00:54.214Z,1322
2022-08-14T07:01:46.086Z,1449
2022-08-14T07:02:37.902Z,1763
2022-08-14T07:03:29.893Z,1848
2022-08-14T07:04:23.916Z,2394
2022-08-14T07:05:16.998Z,2956
2022-08-14T07:06:11.655Z,3059
2022-08-14T07:06:59.139Z,2996
2022-08-14T07:07:49.467Z,3071
2022-08-14T07:08:41.355Z,3016
2022-08-14T07:09:43.633Z,2944
2022-08-14T07:10:25.386Z,2321
2022-08-14T07:11:17.125Z,2327
2022-08-14T07:12:09.023Z,2361
2022-08-14T07:13:03.932Z,2535
2022-08-14T07:13:52.865Z,2607
2022-08-14T07:14:44.699Z,2486
2022-08-14T07:15:39.587Z,2134
2022-08-14T07:16:28.614Z,2188
2022-08-14T07:17:20.806Z,2224
2022-08-14T07:18:12.443Z,2144
2022-08-14T07:19:04.351Z,2194
2022-08-14T07:19:56.299Z,1942
2022-08-14T07:20:48.188Z,1872
2022-08-14T07:21:40.118Z,1838
2022-08-14T07:22:33.025Z,1725
2022-08-14T07:23:24.182Z,1680
2022-08-14T07:24:21.920Z,1703
2022-08-14T07:25:07.807Z,1791
2022-08-14T07:25:59.713Z,1783
2022-08-14T07:26:51.628Z,1789
2022-08-14T07:27:43.539Z,1765
2022-08-14T07:28:35.802Z,1638
2022-08-14T07:29:28.933Z,1701
2022-08-14T07:30:34.078Z,1670
2022-08-14T07:31:11.224Z,1664
2022-08-14T07:32:03.139Z,1735
2022-08-14T07:32:54.972Z,1709
2022-08-14T07:33:50.865Z,1699
2022-08-14T07:34:41.280Z,1701
2022-08-14T07:35:43.043Z,1715
2022-08-14T07:36:27.748Z,1686
2022-08-14T07:37:14.595Z,1666
2022-08-14T07:38:06.576Z,1660
2022-08-14T07:38:58.510Z,1650
2022-08-14T07:39:50.480Z,1624
2022-08-14T07:40:42.339Z,1543
2022-08-14T07:41:35.905Z,1574
2022-08-14T07:42:26.180Z,1614
2022-08-14T07:43:18.121Z,1733
2022-08-14T07:44:29.121Z,1541
2022-08-14T07:45:01.974Z,1566
2022-08-14T07:45:54.170Z,1566
2022-08-14T07:46:45.791Z,1503
2022-08-14T07:47:37.733Z,1555
2022-08-14T07:48:29.628Z,1527
2022-08-14T07:49:21.577Z,1525
2022-08-14T07:50:13.465Z,1463
2022-08-14T07:51:10.806Z,1495
2022-08-14T07:51:57.308Z,1527
2022-08-14T07:52:49.233Z,1422
2022-08-14T07:53:41.291Z,1426
2022-08-14T07:54:33.084Z,1322
2022-08-14T07:55:24.907Z,1414
2022-08-14T07:56:21.652Z,1483
2022-08-14T07:57:12.488Z,1416
2022-08-14T07:58:00.765Z,1503
2022-08-14T07:58:52.707Z,1416
2022-08-14T07:59:46.900Z,1392
2022-08-14T08:00:37.337Z,1346
2022-08-14T08:01:29.950Z,1302
2022-08-14T08:02:21.799Z,1293
2022-08-14T08:03:12.318Z,1302
2022-08-14T08:04:04.217Z,1320
2022-08-14T08:04:59.217Z,1340
2022-08-14T08:05:48.045Z,1265
2022-08-14T08:06:39.990Z,1265
2022-08-14T08:07:31.907Z,1271
2022-08-14T08:08:26.811Z,1360
2022-08-14T08:09:15.751Z,1247
2022-08-14T08:10:07.686Z,1251
2022-08-14T08:11:02.767Z,1279
2022-08-14T08:11:54.420Z,1324
2022-08-14T08:12:43.606Z,1435
2022-08-14T08:13:35.341Z,1372
2022-08-14T08:14:27.278Z,1374
2022-08-14T08:15:19.226Z,1364
2022-08-14T08:16:11.125Z,1322
2022-08-14T08:17:03.070Z,1293
2022-08-14T08:18:01.427Z,1344
2022-08-14T08:18:46.936Z,1283
2022-08-14T08:19:39.870Z,1316
2022-08-14T08:20:30.773Z,1390
2022-08-14T08:21:22.662Z,1374
2022-08-14T08:22:14.628Z,1293
2022-08-14T08:23:06.717Z,1374
2022-08-14T08:23:58.456Z,1344
2022-08-14T08:24:50.868Z,1398
2022-08-14T08:25:42.308Z,1271
2022-08-14T08:26:34.218Z,1422
2022-08-14T08:27:26.148Z,1402
2022-08-14T08:28:25.048Z,1364
2022-08-14T08:29:10.006Z,1352
2022-08-14T08:30:01.910Z,1302
2022-08-14T08:30:53.856Z,1310
2022-08-14T08:31:48.893Z,1312
2022-08-14T08:32:37.727Z,1318
2022-08-14T08:33:32.251Z,1372
2022-08-14T08:34:23.525Z,1366
2022-08-14T08:35:13.464Z,1370
2022-08-14T08:36:05.323Z,1366
2022-08-14T08:36:57.308Z,1382
2022-08-14T08:38:01.088Z,1451
2022-08-14T08:39:18.308Z,1382
2022-08-14T08:39:42.339Z,1336
2022-08-14T08:40:31.313Z,1386
2022-08-14T08:41:16.940Z,1390
2022-08-14T08:42:08.861Z,1398
2022-08-14T08:43:00.790Z,1350
2022-08-14T08:43:52.696Z,1699
2022-08-14T08:44:44.654Z,1696
2022-08-14T08:45:36.543Z,1576
2022-08-14T08:46:28.497Z,1582
2022-08-14T08:47:20.403Z,1574
2022-08-14T08:48:18.158Z,1771
2022-08-14T08:49:04.331Z,1715
2022-08-14T08:49:59.475Z,1832
2022-08-14T08:50:48.191Z,2005
2022-08-14T08:51:42.913Z,2414
2022-08-14T08:52:32.315Z,2384
2022-08-14T08:53:23.894Z,2093
2022-08-14T08:54:19.801Z,2180
2022-08-14T08:55:07.749Z,2047
2022-08-14T08:55:59.686Z,2235
2022-08-14T08:56:51.968Z,2095
2022-08-14T08:57:43.534Z,2206
2022-08-14T08:58:35.363Z,2232
2022-08-14T08:59:31.631Z,2206
2022-08-14T09:00:29.408Z,2192
2022-08-14T09:01:11.263Z,2243
2022-08-14T09:02:04.021Z,2251
2022-08-14T09:02:55.017Z,2136
2022-08-14T09:03:47.011Z,2212
2022-08-14T09:04:45.022Z,2313
2022-08-14T09:05:30.872Z,2200
2022-08-14T09:07:00.096Z,2106
2022-08-14T09:07:14.698Z,2136
2022-08-14T09:08:06.637Z,2204
2022-08-14T09:08:58.589Z,2184
2022-08-14T09:09:54.263Z,2192
2022-08-14T09:10:42.437Z,2156
2022-08-14T09:11:34.352Z,2206
2022-08-14T09:12:26.886Z,2172
2022-08-14T09:13:18.195Z,2156
2022-08-14T09:14:10.138Z,2114
2022-08-14T09:15:02.125Z,2087
2022-08-14T09:15:53.987Z,2089
2022-08-14T09:16:48.389Z,2142
2022-08-14T09:17:37.860Z,2130
2022-08-14T09:18:29.769Z,2152
2022-08-14T09:19:21.659Z,2156
2022-08-14T09:20:13.609Z,2120
2022-08-14T09:21:05.554Z,2063
2022-08-14T09:21:57.472Z,2049
2022-08-14T09:22:49.863Z,2089
2022-08-14T09:24:26.692Z,2021
2022-08-14T09:24:43.791Z,2023
2022-08-14T09:25:59.889Z,2079
2022-08-14T09:26:20.848Z,1973
2022-08-14T09:27:09.027Z,1981
2022-08-14T09:28:01.013Z,2069
2022-08-14T09:28:52.879Z,2361
2022-08-14T09:29:44.802Z,2093
2022-08-14T09:30:36.743Z,2299
2022-08-14T09:31:28.677Z,2174
2022-08-14T09:33:09.287Z,2180
2022-08-14T09:33:13.100Z,2132
2022-08-14T09:34:04.447Z,2164
2022-08-14T09:34:59.055Z,1989
2022-08-14T09:35:48.307Z,2156
2022-08-14T09:36:40.253Z,2136
2022-08-14T09:37:32.177Z,2065
2022-08-14T09:38:26.049Z,2194
2022-08-14T09:39:22.982Z,2158
2022-08-14T09:40:08.004Z,2271
2022-08-14T09:40:59.888Z,2251
2022-08-14T09:42:20.013Z,1971
2022-08-14T09:42:45.130Z,2261
2022-08-14T09:43:35.673Z,2124
2022-08-14T09:44:27.595Z,1969
2022-08-14T09:45:19.550Z,1983
2022-08-14T09:46:11.442Z,1969
2022-08-14T09:47:03.386Z,1940
2022-08-14T09:47:55.266Z,2099
2022-08-14T09:48:47.244Z,1962
2022-08-14T09:49:40.760Z,1844
2022-08-14T09:50:31.106Z,1997
2022-08-14T09:51:23.079Z,1890
2022-08-14T09:52:32.688Z,1777
2022-08-14T09:53:17.977Z,1956
2022-08-14T09:54:18.710Z,2049
2022-08-14T09:54:50.727Z,2065
2022-08-14T09:55:42.920Z,1878
2022-08-14T09:56:34.586Z,1821
2022-08-14T09:57:27.710Z,1880
2022-08-14T09:58:19.942Z,1995
2022-08-14T09:59:10.384Z,2106
2022-08-14T10:00:02.283Z,2168
2022-08-14T10:00:54.253Z,2208
2022-08-14T10:01:52.705Z,2164
2022-08-14T10:02:38.157Z,2146
2022-08-14T10:03:30.018Z,2202
2022-08-14T10:04:34.839Z,2237
2022-08-14T10:05:13.855Z,2206
2022-08-14T10:06:05.743Z,2202
2022-08-14T10:06:57.716Z,2132
2022-08-14T10:07:49.655Z,2188
2022-08-14T10:08:41.597Z,2212
2022-08-14T10:09:34.974Z,2214
2022-08-14T10:10:25.411Z,2259
2022-08-14T10:11:17.392Z,2216
2022-08-14T10:12:18.684Z,2261
2022-08-14T10:13:01.240Z,2277
2022-08-14T10:13:53.654Z,2273
2022-08-14T10:14:45.025Z,2275
2022-08-14T10:15:37.023Z,2341
2022-08-14T10:16:33.437Z,2265
2022-08-14T10:17:20.881Z,2275
2022-08-14T10:18:17.300Z,2355
2022-08-14T10:19:04.744Z,2313
2022-08-14T10:19:58.055Z,2368
2022-08-14T10:20:49.965Z,2345
2022-08-14T10:21:58.211Z,2368
2022-08-14T10:23:15.034Z,2396
2022-08-14T10:23:24.943Z,2424
2022-08-14T10:24:17.539Z,2446
2022-08-14T10:25:08.255Z,2498
2022-08-14T10:26:00.194Z,2511
2022-08-14T10:26:52.115Z,2482
2022-08-14T10:27:44.037Z,2537
2022-08-14T10:29:03.677Z,2498
2022-08-14T10:29:27.901Z,2537
2022-08-14T10:30:22.700Z,2543
2022-08-14T10:31:11.766Z,2583
2022-08-14T10:32:03.699Z,2615
2022-08-14T10:32:55.883Z,2621
2022-08-14T10:33:50.900Z,2629
2022-08-14T10:34:40.817Z,2724
2022-08-14T10:35:31.908Z,2714
2022-08-14T10:36:35.085Z,2710
2022-08-14T10:37:15.268Z,2750
2022-08-14T10:38:07.483Z,2740
2022-08-14T10:38:59.175Z,2777
2022-08-14T10:40:02.096Z,2801
2022-08-14T10:40:43.996Z,2712
2022-08-14T10:41:34.935Z,2805
2022-08-14T10:42:26.884Z,2696
2022-08-14T10:43:18.725Z,2771
2022-08-14T10:44:21.221Z,2698
2022-08-14T10:45:02.677Z,2728
2022-08-14T10:45:59.920Z,2746
2022-08-14T10:47:36.540Z,2768
2022-08-14T10:48:07.611Z,2752
2022-08-14T10:48:37.009Z,2734
2022-08-14T10:49:22.367Z,2702
2022-08-14T10:50:14.905Z,2712
2022-08-14T10:51:08.358Z,2678
2022-08-14T10:51:58.133Z,2654
2022-08-14T10:52:50.084Z,2668
2022-08-14T10:53:42.015Z,2644
2022-08-14T10:54:35.932Z,2668
2022-08-14T10:55:25.901Z,2621
2022-08-14T10:56:21.821Z,2650
2022-08-14T10:57:09.751Z,2646
2022-08-14T10:58:01.682Z,2680
2022-08-14T10:58:53.608Z,2781
2022-08-14T10:59:45.525Z,2752
2022-08-14T11:00:37.472Z,2827
2022-08-14T11:01:29.418Z,3045
2022-08-14T11:02:35.942Z,2972
2022-08-14T11:03:13.300Z,2920
2022-08-14T11:04:05.149Z,3006
2022-08-14T11:05:00.877Z,2839
2022-08-14T11:05:49.068Z,2791
2022-08-14T11:06:41.035Z,2650
2022-08-14T11:07:32.938Z,2621
2022-08-14T11:08:24.899Z,2555
2022-08-14T11:09:17.215Z,2587
2022-08-14T11:10:08.749Z,2503
2022-08-14T11:11:00.687Z,2547
2022-08-14T11:11:55.045Z,2539
2022-08-14T11:12:44.697Z,2503
2022-08-14T11:13:36.497Z,2587
2022-08-14T11:14:28.404Z,2559
2022-08-14T11:15:20.361Z,2517
2022-08-14T11:16:12.302Z,2545
2022-08-14T11:17:04.228Z,2549
2022-08-14T11:17:56.160Z,2595
2022-08-14T11:18:50.910Z,2666
2022-08-14T11:19:40.055Z,2642
2022-08-14T11:20:31.974Z,2611
2022-08-14T11:21:23.905Z,2670
2022-08-14T11:22:56.152Z,2678
2022-08-14T11:23:08.719Z,2740
2022-08-14T11:23:59.720Z,2702
2022-08-14T11:24:55.557Z,2674
2022-08-14T11:25:53.276Z,2730
2022-08-14T11:26:36.122Z,2795
2022-08-14T11:27:33.414Z,2722
2022-08-14T11:28:19.673Z,2746
2022-08-14T11:29:11.344Z,2736
2022-08-14T11:30:49.118Z,2708
2022-08-14T11:30:55.423Z,2740
2022-08-14T11:31:47.089Z,2724
2022-08-14T11:32:39.275Z,2748
2022-08-14T11:33:31.047Z,2760
2022-08-14T11:34:32.444Z,2779
2022-08-14T11:35:14.887Z,2740
2022-08-14T11:36:17.259Z,2785
2022-08-14T11:37:04.466Z,2805
2022-08-14T11:37:50.726Z,2815
2022-08-14T11:38:44.822Z,2781
2022-08-14T11:39:37.012Z,2752
2022-08-14T11:40:29.240Z,2847
2022-08-14T11:41:18.474Z,2831
2022-08-14T11:42:56.389Z,2849
2022-08-14T11:43:02.348Z,2845
2022-08-14T11:43:58.299Z,2851
2022-08-14T11:44:47.037Z,2827